sensor_id;sensor_type;location;lat;lon;timestamp;pressure;altitude;pressure_sealevel;temperature;humidity
49377;BME280;35253;34.688;33.040;2024-03-02T00:00:26;100773.16;;;17.44;41.13
49377;BME280;35253;34.688;33.040;2024-03-02T00:02:52;100771.06;;;17.47;40.80
49377;BME280;35253;34.688;33.040;2024-03-02T00:05:20;100760.53;;;17.44;41.18
49377;BME280;35253;34.688;33.040;2024-03-02T00:07:52;100753.63;;;17.51;41.72
49377;BME280;35253;34.688;33.040;2024-03-02T00:10:20;100751.53;;;17.55;42.00
49377;BME280;35253;34.688;33.040;2024-03-02T00:12:50;100741.59;;;17.55;42.63
49377;BME280;35253;34.688;33.040;2024-03-02T00:15:46;100735.13;;;17.58;41.78
49377;BME280;35253;34.688;33.040;2024-03-02T00:18:34;100730.31;;;17.62;40.36
49377;BME280;35253;34.688;33.040;2024-03-02T00:20:59;100725.78;;;17.62;40.23
49377;BME280;35253;34.688;33.040;2024-03-02T00:23:33;100715.84;;;17.63;39.86
49377;BME280;35253;34.688;33.040;2024-03-02T00:26:00;100704.53;;;17.48;40.53
49377;BME280;35253;34.688;33.040;2024-03-02T00:28:34;100702.81;;;17.47;40.60
49377;BME280;35253;34.688;33.040;2024-03-02T00:31:13;100711.75;;;17.47;40.56
49377;BME280;35253;34.688;33.040;2024-03-02T00:33:46;100717.59;;;17.52;40.14
49377;BME280;35253;34.688;33.040;2024-03-02T00:36:16;100718.56;;;17.51;39.61
49377;BME280;35253;34.688;33.040;2024-03-02T00:38:48;100716.16;;;17.48;39.93
49377;BME280;35253;34.688;33.040;2024-03-02T00:41:32;100708.16;;;17.58;39.06
49377;BME280;35253;34.688;33.040;2024-03-02T00:44:00;100706.78;;;17.64;39.17
49377;BME280;35253;34.688;33.040;2024-03-02T00:46:42;100693.06;;;17.55;39.17
49377;BME280;35253;34.688;33.040;2024-03-02T00:51:37;100677.81;;;17.66;38.78
49377;BME280;35253;34.688;33.040;2024-03-02T00:54:08;100685.78;;;17.67;39.14
49377;BME280;35253;34.688;33.040;2024-03-02T00:56:34;100687.16;;;17.62;39.57
49377;BME280;35253;34.688;33.040;2024-03-02T00:59:00;100690.59;;;17.64;39.86
49377;BME280;35253;34.688;33.040;2024-03-02T01:01:26;100686.34;;;17.71;40.51
49377;BME280;35253;34.688;33.040;2024-03-02T01:03:52;100681.53;;;17.74;41.47
49377;BME280;35253;34.688;33.040;2024-03-02T01:06:18;100682.69;;;17.72;40.76
49377;BME280;35253;34.688;33.040;2024-03-02T01:08:44;100693.72;;;17.69;41.41
49377;BME280;35253;34.688;33.040;2024-03-02T01:11:10;100684.13;;;17.76;41.55
49377;BME280;35253;34.688;33.040;2024-03-02T01:13:36;100683.38;;;17.74;41.99
49377;BME280;35253;34.688;33.040;2024-03-02T01:16:02;100685.50;;;17.70;42.82
49377;BME280;35253;34.688;33.040;2024-03-02T01:18:28;100684.66;;;17.70;43.24
49377;BME280;35253;34.688;33.040;2024-03-02T01:20:54;100684.94;;;17.67;44.21
49377;BME280;35253;34.688;33.040;2024-03-02T01:23:23;100676.88;;;17.76;44.40
49377;BME280;35253;34.688;33.040;2024-03-02T01:25:49;100691.75;;;17.71;44.83
49377;BME280;35253;34.688;33.040;2024-03-02T01:28:16;100680.44;;;17.77;45.31
49377;BME280;35253;34.688;33.040;2024-03-02T01:30:42;100679.25;;;17.70;45.64
49377;BME280;35253;34.688;33.040;2024-03-02T01:33:07;100686.34;;;17.71;46.27
49377;BME280;35253;34.688;33.040;2024-03-02T01:35:33;100684.66;;;17.70;47.22
49377;BME280;35253;34.688;33.040;2024-03-02T01:38:00;100672.44;;;17.66;47.58
49377;BME280;35253;34.688;33.040;2024-03-02T01:40:26;100676.16;;;17.74;48.05
49377;BME280;35253;34.688;33.040;2024-03-02T01:42:53;100671.31;;;17.78;47.87
49377;BME280;35253;34.688;33.040;2024-03-02T01:45:23;100681.78;;;17.62;48.67
49377;BME280;35253;34.688;33.040;2024-03-02T01:47:50;100684.59;;;17.60;48.60
49377;BME280;35253;34.688;33.040;2024-03-02T01:50:16;100685.47;;;17.61;49.44
49377;BME280;35253;34.688;33.040;2024-03-02T01:52:49;100684.94;;;17.67;49.36
49377;BME280;35253;34.688;33.040;2024-03-02T01:55:15;100684.94;;;17.67;50.33
49377;BME280;35253;34.688;33.040;2024-03-02T01:57:41;100698.94;;;17.61;50.91
49377;BME280;35253;34.688;33.040;2024-03-02T02:00:07;100694.13;;;17.43;50.90
49377;BME280;35253;34.688;33.040;2024-03-02T02:02:33;100696.47;;;17.57;51.65
49377;BME280;35253;34.688;33.040;2024-03-02T02:04:58;100696.84;;;17.43;52.31
49377;BME280;35253;34.688;33.040;2024-03-02T02:07:24;100701.53;;;17.51;52.84
49377;BME280;35253;34.688;33.040;2024-03-02T02:09:49;100701.53;;;17.41;53.11
49377;BME280;35253;34.688;33.040;2024-03-02T02:12:15;100704.41;;;17.49;53.43
49377;BME280;35253;34.688;33.040;2024-03-02T02:14:47;100710.31;;;17.43;53.65
49377;BME280;35253;34.688;33.040;2024-03-02T02:17:14;100703.19;;;17.33;55.28
49377;BME280;35253;34.688;33.040;2024-03-02T02:19:40;100702.91;;;17.36;54.98
49377;BME280;35253;34.688;33.040;2024-03-02T02:22:06;100701.53;;;17.41;55.67
49377;BME280;35253;34.688;33.040;2024-03-02T02:24:32;100708.88;;;17.39;56.50
49377;BME280;35253;34.688;33.040;2024-03-02T02:26:57;100715.63;;;17.34;56.38
49377;BME280;35253;34.688;33.040;2024-03-02T02:29:23;100711.09;;;17.34;56.61
49377;BME280;35253;34.688;33.040;2024-03-02T02:31:48;100710.53;;;17.31;56.96
49377;BME280;35253;34.688;33.040;2024-03-02T02:34:14;100715.63;;;17.34;56.24
49377;BME280;35253;34.688;33.040;2024-03-02T02:36:41;100709.66;;;17.30;56.98
49377;BME280;35253;34.688;33.040;2024-03-02T02:39:12;100711.19;;;17.23;56.19
49377;BME280;35253;34.688;33.040;2024-03-02T02:41:39;100716.72;;;17.22;57.15
49377;BME280;35253;34.688;33.040;2024-03-02T02:44:05;100711.25;;;17.12;56.66
49377;BME280;35253;34.688;33.040;2024-03-02T02:46:30;100708.94;;;17.07;57.25
49377;BME280;35253;34.688;33.040;2024-03-02T02:48:56;100707.78;;;17.00;58.03
49377;BME280;35253;34.688;33.040;2024-03-02T02:51:21;100707.25;;;17.06;58.39
49377;BME280;35253;34.688;33.040;2024-03-02T02:53:47;100702.97;;;17.04;58.23
49377;BME280;35253;34.688;33.040;2024-03-02T02:56:13;100708.44;;;17.13;58.92
49377;BME280;35253;34.688;33.040;2024-03-02T02:58:40;100705.41;;;17.07;58.46
49377;BME280;35253;34.688;33.040;2024-03-02T03:01:06;100701.03;;;17.06;59.65
49377;BME280;35253;34.688;33.040;2024-03-02T03:03:33;100699.50;;;17.13;58.88
49377;BME280;35253;34.688;33.040;2024-03-02T03:05:58;100703.16;;;17.12;59.50
49377;BME280;35253;34.688;33.040;2024-03-02T03:08:24;100706.13;;;17.09;60.24
49377;BME280;35253;34.688;33.040;2024-03-02T03:10:50;100702.00;;;17.05;59.68
49377;BME280;35253;34.688;33.040;2024-03-02T03:13:15;100696.03;;;17.01;60.32
49377;BME280;35253;34.688;33.040;2024-03-02T03:15:41;100707.19;;;16.97;60.07
49377;BME280;35253;34.688;33.040;2024-03-02T03:18:07;100697.84;;;17.01;61.01
49377;BME280;35253;34.688;33.040;2024-03-02T03:20:33;100692.94;;;17.06;60.78
49377;BME280;35253;34.688;33.040;2024-03-02T03:23:02;100692.47;;;17.01;60.69
49377;BME280;35253;34.688;33.040;2024-03-02T03:25:29;100689.38;;;17.05;61.06
49377;BME280;35253;34.688;33.040;2024-03-02T03:27:55;100698.25;;;17.17;58.83
49377;BME280;35253;34.688;33.040;2024-03-02T03:30:21;100687.34;;;16.98;57.27
49377;BME280;35253;34.688;33.040;2024-03-02T03:32:46;100685.88;;;16.94;57.49
49377;BME280;35253;34.688;33.040;2024-03-02T03:35:13;100681.22;;;16.96;58.39
49377;BME280;35253;34.688;33.040;2024-03-02T03:37:40;100685.09;;;17.03;57.20
49377;BME280;35253;34.688;33.040;2024-03-02T03:40:06;100677.97;;;16.92;59.22
49377;BME280;35253;34.688;33.040;2024-03-02T03:42:39;100674.28;;;16.93;58.04
49377;BME280;35253;34.688;33.040;2024-03-02T03:45:06;100681.03;;;16.88;58.16
49377;BME280;35253;34.688;33.040;2024-03-02T03:47:32;100688.00;;;16.90;58.90
49377;BME280;35253;34.688;33.040;2024-03-02T03:49:58;100689.97;;;16.88;59.00
49377;BME280;35253;34.688;33.040;2024-03-02T03:52:24;100681.31;;;16.85;59.02
49377;BME280;35253;34.688;33.040;2024-03-02T03:54:50;100687.59;;;16.95;59.07
49377;BME280;35253;34.688;33.040;2024-03-02T03:57:16;100672.88;;;16.99;58.45
49377;BME280;35253;34.688;33.040;2024-03-02T03:59:42;100684.91;;;16.95;58.89
49377;BME280;35253;34.688;33.040;2024-03-02T04:02:08;100676.44;;;16.99;59.40
49377;BME280;35253;34.688;33.040;2024-03-02T04:04:34;100680.75;;;16.91;58.39
49377;BME280;35253;34.688;33.040;2024-03-02T04:07:00;100689.38;;;16.85;58.24
49377;BME280;35253;34.688;33.040;2024-03-02T04:09:26;100691.88;;;16.97;58.24
49377;BME280;35253;34.688;33.040;2024-03-02T04:11:52;100684.50;;;16.99;58.04
49377;BME280;35253;34.688;33.040;2024-03-02T04:14:18;100684.50;;;16.99;56.78
49377;BME280;35253;34.688;33.040;2024-03-02T04:16:44;100695.34;;;17.09;56.14
49377;BME280;35253;34.688;33.040;2024-03-02T04:19:09;100696.81;;;17.13;56.13
49377;BME280;35253;34.688;33.040;2024-03-02T04:21:35;100693.72;;;17.18;54.20
49377;BME280;35253;34.688;33.040;2024-03-02T04:24:01;100686.38;;;17.20;54.48
49377;BME280;35253;34.688;33.040;2024-03-02T04:26:26;100689.69;;;17.12;54.79
49377;BME280;35253;34.688;33.040;2024-03-02T04:28:55;100682.47;;;17.12;53.81
49377;BME280;35253;34.688;33.040;2024-03-02T04:31:21;100681.38;;;17.15;53.07
49377;BME280;35253;34.688;33.040;2024-03-02T04:33:46;100689.38;;;17.26;51.49
49377;BME280;35253;34.688;33.040;2024-03-02T04:36:12;100683.47;;;17.32;50.53
49377;BME280;35253;34.688;33.040;2024-03-02T04:38:38;100687.84;;;17.33;50.66
49377;BME280;35253;34.688;33.040;2024-03-02T04:41:04;100699.00;;;17.49;50.05
49377;BME280;35253;34.688;33.040;2024-03-02T04:43:34;100697.00;;;17.51;49.85
49377;BME280;35253;34.688;33.040;2024-03-02T04:46:00;100688.69;;;17.54;50.40
49377;BME280;35253;34.688;33.040;2024-03-02T04:48:26;100691.19;;;17.67;49.72
49377;BME280;35253;34.688;33.040;2024-03-02T04:50:52;100695.44;;;17.70;48.38
49377;BME280;35253;34.688;33.040;2024-03-02T04:53:17;100692.28;;;17.65;48.94
49377;BME280;35253;34.688;33.040;2024-03-02T04:55:43;100692.91;;;17.78;48.41
49377;BME280;35253;34.688;33.040;2024-03-02T04:58:09;100695.50;;;17.89;48.14
49377;BME280;35253;34.688;33.040;2024-03-02T05:00:35;100696.06;;;17.83;47.78
49377;BME280;35253;34.688;33.040;2024-03-02T05:03:01;100698.66;;;17.94;47.52
49377;BME280;35253;34.688;33.040;2024-03-02T05:05:27;100701.16;;;17.86;47.32
49377;BME280;35253;34.688;33.040;2024-03-02T05:07:53;100696.13;;;18.02;47.20
49377;BME280;35253;34.688;33.040;2024-03-02T05:10:18;100700.94;;;18.08;47.49
49377;BME280;35253;34.688;33.040;2024-03-02T05:12:44;100699.69;;;18.02;47.91
49377;BME280;35253;34.688;33.040;2024-03-02T05:15:11;100702.09;;;18.06;47.59
49377;BME280;35253;34.688;33.040;2024-03-02T05:17:38;100702.94;;;18.06;47.90
49377;BME280;35253;34.688;33.040;2024-03-02T05:20:05;100701.53;;;18.21;47.72
49377;BME280;35253;34.688;33.040;2024-03-02T05:22:31;100701.13;;;18.26;48.67
49377;BME280;35253;34.688;33.040;2024-03-02T05:24:57;100701.84;;;18.18;48.61
49377;BME280;35253;34.688;33.040;2024-03-02T05:27:24;100708.94;;;18.19;48.35
49377;BME280;35253;34.688;33.040;2024-03-02T05:29:50;100710.38;;;18.23;48.46
49377;BME280;35253;34.688;33.040;2024-03-02T05:32:15;100711.81;;;18.37;46.53
49377;BME280;35253;34.688;33.040;2024-03-02T05:34:41;100705.41;;;18.47;46.55
49377;BME280;35253;34.688;33.040;2024-03-02T05:37:06;100694.09;;;18.54;47.29
49377;BME280;35253;34.688;33.040;2024-03-02T05:39:32;100692.41;;;18.53;46.91
49377;BME280;35253;34.688;33.040;2024-03-02T05:41:58;100692.81;;;18.58;47.27
49377;BME280;35253;34.688;33.040;2024-03-02T05:44:23;100692.28;;;18.64;46.62
49377;BME280;35253;34.688;33.040;2024-03-02T05:46:49;100695.41;;;18.69;46.85
49377;BME280;35253;34.688;33.040;2024-03-02T05:49:14;100701.63;;;18.79;46.60
49377;BME280;35253;34.688;33.040;2024-03-02T05:51:40;100702.78;;;18.86;47.22
49377;BME280;35253;34.688;33.040;2024-03-02T05:54:06;100691.13;;;18.95;47.13
49377;BME280;35253;34.688;33.040;2024-03-02T05:56:32;100691.13;;;18.95;46.17
49377;BME280;35253;34.688;33.040;2024-03-02T05:58:58;100689.84;;;18.99;45.08
49377;BME280;35253;34.688;33.040;2024-03-02T06:01:40;100690.22;;;19.14;44.13
49377;BME280;35253;34.688;33.040;2024-03-02T06:04:06;100694.19;;;19.19;44.66
49377;BME280;35253;34.688;33.040;2024-03-02T06:06:32;100696.47;;;19.24;43.97
49377;BME280;35253;34.688;33.040;2024-03-02T06:09:01;100689.63;;;19.29;43.97
49377;BME280;35253;34.688;33.040;2024-03-02T06:11:34;100689.75;;;19.38;43.07
49377;BME280;35253;34.688;33.040;2024-03-02T06:14:00;100697.72;;;19.49;42.33
49377;BME280;35253;34.688;33.040;2024-03-02T06:16:26;100695.84;;;19.59;42.25
49377;BME280;35253;34.688;33.040;2024-03-02T06:18:52;100699.81;;;19.64;42.01
49377;BME280;35253;34.688;33.040;2024-03-02T06:21:19;100698.94;;;19.64;42.01
49377;BME280;35253;34.688;33.040;2024-03-02T06:23:45;100700.88;;;19.81;41.67
49377;BME280;35253;34.688;33.040;2024-03-02T06:26:11;100698.31;;;19.79;41.13
49377;BME280;35253;34.688;33.040;2024-03-02T06:28:37;100689.50;;;19.77;41.73
49377;BME280;35253;34.688;33.040;2024-03-02T06:31:03;100686.63;;;19.79;42.07
49377;BME280;35253;34.688;33.040;2024-03-02T06:33:29;100679.94;;;19.83;42.07
49377;BME280;35253;34.688;33.040;2024-03-02T06:35:55;100687.75;;;19.86;42.83
49377;BME280;35253;34.688;33.040;2024-03-02T06:38:21;100689.38;;;19.97;42.22
49377;BME280;35253;34.688;33.040;2024-03-02T06:40:46;100691.34;;;20.04;42.32
49377;BME280;35253;34.688;33.040;2024-03-02T06:43:12;100679.91;;;20.10;42.75
49377;BME280;35253;34.688;33.040;2024-03-02T06:45:38;100688.81;;;20.20;43.55
49377;BME280;35253;34.688;33.040;2024-03-02T06:48:03;100670.72;;;20.31;42.72
49377;BME280;35253;34.688;33.040;2024-03-02T06:50:29;100676.81;;;20.33;42.28
49377;BME280;35253;34.688;33.040;2024-03-02T06:52:55;100674.50;;;20.38;42.46
49377;BME280;35253;34.688;33.040;2024-03-02T06:55:24;100667.84;;;20.50;39.99
49377;BME280;35253;34.688;33.040;2024-03-02T06:57:52;100662.34;;;20.59;37.89
49377;BME280;35253;34.688;33.040;2024-03-02T07:00:19;100664.66;;;20.72;36.00
49377;BME280;35253;34.688;33.040;2024-03-02T07:02:46;100654.59;;;20.82;34.67
49377;BME280;35253;34.688;33.040;2024-03-02T07:05:12;100663.09;;;20.87;33.90
49377;BME280;35253;34.688;33.040;2024-03-02T07:07:38;100664.16;;;20.94;34.86
49377;BME280;35253;34.688;33.040;2024-03-02T07:10:07;100665.09;;;21.03;34.92
49377;BME280;35253;34.688;33.040;2024-03-02T07:12:33;100665.59;;;21.06;34.86
49377;BME280;35253;34.688;33.040;2024-03-02T07:14:58;100665.94;;;21.21;35.38
49377;BME280;35253;34.688;33.040;2024-03-02T07:17:32;100664.91;;;21.22;34.06
49377;BME280;35253;34.688;33.040;2024-03-02T07:19:58;100663.75;;;21.25;34.96
49377;BME280;35253;34.688;33.040;2024-03-02T07:22:24;100669.88;;;21.27;34.44
49377;BME280;35253;34.688;33.040;2024-03-02T07:24:50;100674.34;;;21.36;36.42
49377;BME280;35253;34.688;33.040;2024-03-02T07:27:17;100668.25;;;21.42;34.61
49377;BME280;35253;34.688;33.040;2024-03-02T07:29:43;100666.25;;;21.44;36.61
49377;BME280;35253;34.688;33.040;2024-03-02T07:32:10;100664.38;;;21.44;36.13
49377;BME280;35253;34.688;33.040;2024-03-02T07:34:36;100660.19;;;21.50;36.93
49377;BME280;35253;34.688;33.040;2024-03-02T07:37:03;100666.31;;;21.60;36.70
49377;BME280;35253;34.688;33.040;2024-03-02T07:39:29;100666.03;;;21.63;35.49
49377;BME280;35253;34.688;33.040;2024-03-02T07:41:55;100665.16;;;21.63;34.61
49377;BME280;35253;34.688;33.040;2024-03-02T07:44:21;100663.66;;;21.68;34.57
49377;BME280;35253;34.688;33.040;2024-03-02T07:46:48;100654.34;;;21.71;34.76
49377;BME280;35253;34.688;33.040;2024-03-02T07:49:15;100645.13;;;21.64;35.68
49377;BME280;35253;34.688;33.040;2024-03-02T07:51:42;100650.41;;;21.65;36.24
49377;BME280;35253;34.688;33.040;2024-03-02T07:54:08;100648.56;;;21.66;37.15
49377;BME280;35253;34.688;33.040;2024-03-02T07:56:34;100647.06;;;21.71;37.23
49377;BME280;35253;34.688;33.040;2024-03-02T07:59:01;100647.56;;;21.75;39.50
49377;BME280;35253;34.688;33.040;2024-03-02T08:01:31;100652.50;;;21.71;39.60
49377;BME280;35253;34.688;33.040;2024-03-02T08:03:57;100640.09;;;21.77;40.25
49377;BME280;35253;34.688;33.040;2024-03-02T08:06:24;100650.81;;;21.78;39.97
49377;BME280;35253;34.688;33.040;2024-03-02T08:08:56;100645.53;;;21.77;40.55
49377;BME280;35253;34.688;33.040;2024-03-02T08:11:22;100640.66;;;21.80;41.05
49377;BME280;35253;34.688;33.040;2024-03-02T08:16:17;100644.78;;;21.92;39.74
49377;BME280;35253;34.688;33.040;2024-03-02T08:18:50;100640.41;;;21.99;42.17
49377;BME280;35253;34.688;33.040;2024-03-02T08:21:16;100639.72;;;21.97;41.14
49377;BME280;35253;34.688;33.040;2024-03-02T08:23:42;100640.75;;;21.96;41.25
49377;BME280;35253;34.688;33.040;2024-03-02T08:26:08;100647.53;;;22.00;42.17
49377;BME280;35253;34.688;33.040;2024-03-02T08:28:34;100647.19;;;22.03;39.86
49377;BME280;35253;34.688;33.040;2024-03-02T08:31:00;100648.75;;;22.06;39.51
49377;BME280;35253;34.688;33.040;2024-03-02T08:33:26;100658.59;;;22.07;40.02
49377;BME280;35253;34.688;33.040;2024-03-02T08:35:52;100646.88;;;22.07;38.77
49377;BME280;35253;34.688;33.040;2024-03-02T08:38:17;100648.25;;;22.11;40.87
49377;BME280;35253;34.688;33.040;2024-03-02T08:40:44;100642.47;;;22.14;44.66
49377;BME280;35253;34.688;33.040;2024-03-02T08:43:09;100648.25;;;22.11;44.05
49377;BME280;35253;34.688;33.040;2024-03-02T08:45:35;100630.97;;;22.20;45.25
49377;BME280;35253;34.688;33.040;2024-03-02T08:48:01;100642.69;;;22.20;49.52
49377;BME280;35253;34.688;33.040;2024-03-02T08:50:26;100660.84;;;22.20;49.51
49377;BME280;35253;34.688;33.040;2024-03-02T08:52:52;100655.06;;;22.15;49.39
49377;BME280;35253;34.688;33.040;2024-03-02T08:55:18;100648.56;;;22.08;50.49
49377;BME280;35253;34.688;33.040;2024-03-02T08:57:44;100650.78;;;22.12;53.31
49377;BME280;35253;34.688;33.040;2024-03-02T09:00:10;100659.28;;;22.17;59.53
49377;BME280;35253;34.688;33.040;2024-03-02T09:02:36;100649.28;;;22.18;66.63
49377;BME280;35253;34.688;33.040;2024-03-02T09:05:01;100651.66;;;22.21;69.06
49377;BME280;35253;34.688;33.040;2024-03-02T09:07:27;100638.94;;;22.21;66.02
49377;BME280;35253;34.688;33.040;2024-03-02T09:09:53;100644.53;;;22.20;66.84
49377;BME280;35253;34.688;33.040;2024-03-02T09:12:19;100635.03;;;22.24;67.60
49377;BME280;35253;34.688;33.040;2024-03-02T09:14:45;100634.00;;;22.25;65.27
49377;BME280;35253;34.688;33.040;2024-03-02T09:17:12;100637.28;;;22.36;68.42
49377;BME280;35253;34.688;33.040;2024-03-02T09:19:38;100632.84;;;22.35;70.14
49377;BME280;35253;34.688;33.040;2024-03-02T09:22:04;100623.00;;;22.34;73.13
49377;BME280;35253;34.688;33.040;2024-03-02T09:24:31;100633.00;;;22.34;68.80
49377;BME280;35253;34.688;33.040;2024-03-02T09:26:58;100628.28;;;22.36;72.38
49377;BME280;35253;34.688;33.040;2024-03-02T09:29:24;100626.56;;;22.35;74.90
49377;BME280;35253;34.688;33.040;2024-03-02T09:31:50;100615.03;;;22.33;72.98
49377;BME280;35253;34.688;33.040;2024-03-02T09:34:16;100616.53;;;22.27;72.44
49377;BME280;35253;34.688;33.040;2024-03-02T09:36:42;100620.47;;;22.33;73.85
49377;BME280;35253;34.688;33.040;2024-03-02T09:39:08;100616.03;;;22.24;76.67
49377;BME280;35253;34.688;33.040;2024-03-02T09:41:37;100626.41;;;22.36;79.73
49377;BME280;35253;34.688;33.040;2024-03-02T09:44:04;100615.03;;;22.49;81.19
49377;BME280;35253;34.688;33.040;2024-03-02T09:46:30;100609.09;;;22.62;88.29
49377;BME280;35253;34.688;33.040;2024-03-02T09:48:56;100605.88;;;22.66;100.00
49377;BME280;35253;34.688;33.040;2024-03-02T09:51:22;100606.22;;;22.55;100.00
49377;BME280;35253;34.688;33.040;2024-03-02T09:53:48;100607.03;;;22.47;100.00
49377;BME280;35253;34.688;33.040;2024-03-02T09:56:14;100606.53;;;22.52;100.00
49377;BME280;35253;34.688;33.040;2024-03-02T09:58:41;100599.44;;;22.59;100.00
49377;BME280;35253;34.688;33.040;2024-03-02T10:01:07;100598.41;;;22.68;100.00
49377;BME280;35253;34.688;33.040;2024-03-02T10:03:36;100588.38;;;22.53;100.00
49377;BME280;35253;34.688;33.040;2024-03-02T10:06:24;100587.88;;;22.41;100.00
49377;BME280;35253;34.688;33.040;2024-03-02T10:08:50;100581.75;;;22.55;100.00
49377;BME280;35253;34.688;33.040;2024-03-02T10:11:33;100573.94;;;22.52;100.00
49377;BME280;35253;34.688;33.040;2024-03-02T10:14:11;100569.19;;;22.70;100.00
49377;BME280;35253;34.688;33.040;2024-03-02T10:16:41;100569.84;;;22.64;100.00
49377;BME280;35253;34.688;33.040;2024-03-02T10:19:23;100566.13;;;22.57;100.00
49377;BME280;35253;34.688;33.040;2024-03-02T10:21:50;100561.88;;;22.63;100.00
49377;BME280;35253;34.688;33.040;2024-03-02T10:24:17;100551.19;;;22.69;100.00
49377;BME280;35253;34.688;33.040;2024-03-02T10:26:43;100551.66;;;22.65;100.00
49377;BME280;35253;34.688;33.040;2024-03-02T10:29:09;100548.81;;;22.74;100.00
49377;BME280;35253;34.688;33.040;2024-03-02T10:31:40;100535.06;;;22.76;100.00
49377;BME280;35253;34.688;33.040;2024-03-02T10:34:07;100533.16;;;22.84;100.00
49377;BME280;35253;34.688;33.040;2024-03-02T10:36:34;100531.28;;;22.93;100.00
49377;BME280;35253;34.688;33.040;2024-03-02T10:39:06;100537.03;;;23.06;100.00
49377;BME280;35253;34.688;33.040;2024-03-02T10:41:32;100530.00;;;23.20;100.00
49377;BME280;35253;34.688;33.040;2024-03-02T10:43:59;100527.59;;;23.33;100.00
49377;BME280;35253;34.688;33.040;2024-03-02T10:46:29;100525.72;;;23.33;100.00
49377;BME280;35253;34.688;33.040;2024-03-02T10:48:56;100525.19;;;23.38;100.00
49377;BME280;35253;34.688;33.040;2024-03-02T10:51:28;100519.69;;;23.54;100.00
49377;BME280;35253;34.688;33.040;2024-03-02T10:53:57;100528.66;;;23.63;100.00
49377;BME280;35253;34.688;33.040;2024-03-02T10:56:34;100520.13;;;23.66;100.00
49377;BME280;35253;34.688;33.040;2024-03-02T11:01:38;100514.66;;;23.97;100.00
49377;BME280;35253;34.688;33.040;2024-03-02T11:04:08;100516.97;;;24.08;100.00
49377;BME280;35253;34.688;33.040;2024-03-02T11:06:34;100520.84;;;24.36;100.00
49377;BME280;35253;34.688;33.040;2024-03-02T11:09:06;100512.88;;;24.35;100.00
49377;BME280;35253;34.688;33.040;2024-03-02T11:11:42;100518.56;;;24.48;100.00
49377;BME280;35253;34.688;33.040;2024-03-02T11:14:13;100510.63;;;24.38;100.00
49377;BME280;35253;34.688;33.040;2024-03-02T11:16:39;100509.44;;;24.55;100.00
49377;BME280;35253;34.688;33.040;2024-03-02T11:19:10;100507.56;;;24.70;100.00
49377;BME280;35253;34.688;33.040;2024-03-02T11:21:36;100507.00;;;24.60;100.00
49377;BME280;35253;34.688;33.040;2024-03-02T11:26:47;100512.81;;;24.57;100.00
49377;BME280;35253;34.688;33.040;2024-03-02T11:32:23;100515.69;;;24.79;100.00
49377;BME280;35253;34.688;33.040;2024-03-02T11:34:50;100510.16;;;25.01;100.00
49377;BME280;35253;34.688;33.040;2024-03-02T11:37:18;100501.97;;;25.01;100.00
49377;BME280;35253;34.688;33.040;2024-03-02T11:39:44;100508.00;;;24.97;100.00
49377;BME280;35253;34.688;33.040;2024-03-02T11:42:11;100503.56;;;24.81;100.00
49377;BME280;35253;34.688;33.040;2024-03-02T11:44:42;100506.97;;;24.98;100.00
49377;BME280;35253;34.688;33.040;2024-03-02T11:47:10;100499.91;;;24.89;100.00
49377;BME280;35253;34.688;33.040;2024-03-02T11:49:50;100511.78;;;24.96;100.00
49377;BME280;35253;34.688;33.040;2024-03-02T11:52:17;100509.19;;;24.80;100.00
49377;BME280;35253;34.688;33.040;2024-03-02T11:54:45;100511.56;;;24.83;100.00
49377;BME280;35253;34.688;33.040;2024-03-02T11:57:32;100516.16;;;24.82;100.00
49377;BME280;35253;34.688;33.040;2024-03-02T11:59:58;100515.81;;;25.00;100.00
49377;BME280;35253;34.688;33.040;2024-03-02T12:02:24;100511.69;;;24.66;100.00
49377;BME280;35253;34.688;33.040;2024-03-02T12:04:50;100508.50;;;24.63;100.00
49377;BME280;35253;34.688;33.040;2024-03-02T12:07:20;100514.72;;;24.72;100.00
49377;BME280;35253;34.688;33.040;2024-03-02T12:09:47;100522.88;;;24.94;100.00
49377;BME280;35253;34.688;33.040;2024-03-02T12:12:12;100521.50;;;24.76;100.00
49377;BME280;35253;34.688;33.040;2024-03-02T12:14:51;100519.63;;;24.61;100.00
49377;BME280;35253;34.688;33.040;2024-03-02T12:17:18;100521.50;;;24.76;100.00
49377;BME280;35253;34.688;33.040;2024-03-02T12:19:44;100520.91;;;25.03;100.00
49377;BME280;35253;34.688;33.040;2024-03-02T12:22:11;100510.28;;;25.08;100.00
49377;BME280;35253;34.688;33.040;2024-03-02T12:24:37;100521.75;;;25.03;100.00
49377;BME280;35253;34.688;33.040;2024-03-02T12:27:04;100532.84;;;25.02;100.00
49377;BME280;35253;34.688;33.040;2024-03-02T12:29:30;100532.28;;;24.92;100.00
49377;BME280;35253;34.688;33.040;2024-03-02T12:31:59;100533.59;;;24.96;100.00
49377;BME280;35253;34.688;33.040;2024-03-02T12:34:26;100539.63;;;25.21;100.00
49377;BME280;35253;34.688;33.040;2024-03-02T12:36:51;100533.28;;;25.49;100.00
49377;BME280;35253;34.688;33.040;2024-03-02T12:39:21;100533.84;;;25.74;100.00
49377;BME280;35253;34.688;33.040;2024-03-02T12:41:50;100534.06;;;25.58;100.00
49377;BME280;35253;34.688;33.040;2024-03-02T12:44:17;100533.88;;;25.60;100.00
49377;BME280;35253;34.688;33.040;2024-03-02T12:46:43;100523.84;;;25.81;100.00
49377;BME280;35253;34.688;33.040;2024-03-02T12:49:11;100535.38;;;25.47;100.00
49377;BME280;35253;34.688;33.040;2024-03-02T12:51:38;100535.59;;;25.82;100.00